sim
Sign-in with your pilot id or email,
or register
Callsign
Passwort

Schedule Details

Flight Number: DLH425
Departure: Boston Logan International Airport (KBOS) at 01:35
Arrival: Munich Airport (EDDM) at 08:45
Route: Lufthansa Passenger Schedule. Enter filed route here before submitting Pirep.

Weather Information
Getting current METAR information for KBOS 302354Z 22010KT 10SM FEW220 18/08 A2980 RMK AO2 SLP091 T01780078 10222 20178 53036
Getting current METAR information for EDDM 010020Z 33001KT 1500 0500NE R08L/0550D R08R/0700N BCFG NSC 05/05 Q1011 NOSIG

Schedule Frequency

Route Map